createdAt,value
2022-08-05T00:01:30.244Z,100704.50
2022-08-05T00:04:03.883Z,100655.66
2022-08-05T00:06:33.264Z,100703.75
2022-08-05T00:09:00.993Z,100705.16
2022-08-05T00:11:34.607Z,100674.72
2022-08-05T00:14:12.071Z,100653.38
2022-08-05T00:16:52.622Z,100631.75
2022-08-05T00:19:21.556Z,100601.09
2022-08-05T00:21:48.851Z,100595.91
2022-08-05T00:24:19.313Z,100595.13
2022-08-05T00:26:53.018Z,100623.38
2022-08-05T00:29:22.823Z,100651.72
2022-08-05T00:32:10.986Z,100664.97
2022-08-05T00:34:53.755Z,100659.59
2022-08-05T00:37:27.032Z,100657.81
2022-08-05T00:40:13.505Z,100656.88
2022-08-05T00:42:44.341Z,100651.28
2022-08-05T00:45:15.913Z,100643.78
2022-08-05T00:47:53.098Z,100631.66
2022-08-05T00:50:25.361Z,100634.88
2022-08-05T00:52:53.392Z,100627.97
2022-08-05T00:55:21.885Z,100624.06
2022-08-05T00:57:58.211Z,100618.00
2022-08-05T01:00:26.005Z,100629.44
2022-08-05T01:02:52.729Z,100631.31
2022-08-05T01:05:19.627Z,100633.47
2022-08-05T01:08:30.693Z,100636.22
2022-08-05T01:10:36.077Z,100654.59
2022-08-05T01:13:13.312Z,100658.19
2022-08-05T01:15:56.676Z,100648.09
2022-08-05T01:18:29.686Z,100650.44
2022-08-05T01:21:22.643Z,100662.25
2022-08-05T01:24:14.236Z,100672.31
2022-08-05T01:26:55.613Z,100687.56
2022-08-05T01:29:34.911Z,100714.91
2022-08-05T01:32:06.500Z,100721.91
2022-08-05T01:34:45.843Z,100737.72
2022-08-05T01:37:25.437Z,100737.59
2022-08-05T01:39:59.086Z,100739.38
2022-08-05T01:42:28.052Z,100747.44
2022-08-05T01:44:59.925Z,100739.94
2022-08-05T01:47:39.360Z,100736.00
2022-08-05T01:50:28.758Z,100735.41
2022-08-05T01:53:00.725Z,100738.59
2022-08-05T01:55:30.922Z,100740.94
2022-08-05T01:58:18.741Z,100745.78
2022-08-05T02:00:53.167Z,100750.91
2022-08-05T02:03:33.985Z,100731.16
2022-08-05T02:06:33.450Z,100739.22
2022-08-05T02:08:58.164Z,100726.25
2022-08-05T02:11:32.894Z,100732.66
2022-08-05T02:14:14.594Z,100743.22
2022-08-05T02:16:52.889Z,100744.13
2022-08-05T02:19:28.462Z,100739.13
2022-08-05T02:22:31.767Z,100741.72
2022-08-05T02:25:08.619Z,100751.44
2022-08-05T02:27:58.650Z,100749.88
2022-08-05T02:30:30.978Z,100746.75
2022-08-05T02:33:00.123Z,100744.47
2022-08-05T02:35:33.159Z,100753.13
2022-08-05T02:38:05.278Z,100756.31
2022-08-05T02:40:37.430Z,100756.31
2022-08-05T02:43:07.210Z,100746.22
2022-08-05T02:45:52.316Z,100740.75
2022-08-05T02:48:29.469Z,100759.66
2022-08-05T02:50:59.888Z,100756.94
2022-08-05T02:53:28.564Z,100760.34
2022-08-05T02:56:06.314Z,100775.28
2022-08-05T02:58:35.409Z,100777.38
2022-08-05T03:01:02.759Z,100771.09
2022-08-05T03:03:34.098Z,100771.94
2022-08-05T03:06:54.060Z,100760.56
2022-08-05T03:09:07.785Z,100752.97
2022-08-05T03:11:53.455Z,100751.06
2022-08-05T03:14:20.959Z,100758.44
2022-08-05T03:16:47.639Z,100763.06
2022-08-05T03:19:20.328Z,100751.31
2022-08-05T03:22:00.149Z,100753.44
2022-08-05T03:24:30.430Z,100755.56
2022-08-05T03:26:59.358Z,100747.63
2022-08-05T03:29:46.018Z,100747.19
2022-08-05T03:32:14.398Z,100745.53
2022-08-05T03:34:42.248Z,100736.50
2022-08-05T03:37:18.551Z,100730.19
2022-08-05T03:40:01.606Z,100749.72
2022-08-05T03:42:32.485Z,100748.66
2022-08-05T03:45:21.535Z,100765.84
2022-08-05T03:47:50.087Z,100771.72
2022-08-05T03:50:16.827Z,100772.53
2022-08-05T03:55:50.114Z,100762.25
2022-08-05T03:56:10.186Z,100783.63
2022-08-05T03:58:41.145Z,100780.28
2022-08-05T04:01:11.436Z,100774.19
2022-08-05T04:03:42.414Z,100757.66
2022-08-05T04:06:29.628Z,100737.56
2022-08-05T04:08:56.819Z,100735.75
2022-08-05T04:11:24.176Z,100724.31
2022-08-05T04:14:10.995Z,100726.47
2022-08-05T04:16:44.826Z,100732.84
2022-08-05T04:19:13.080Z,100733.75
2022-08-05T04:22:08.434Z,100739.44
2022-08-05T04:24:27.678Z,100732.31
2022-08-05T04:26:54.220Z,100720.94
2022-08-05T04:29:20.964Z,100719.44
2022-08-05T04:31:48.414Z,100702.63
2022-08-05T04:34:18.290Z,100691.25
2022-08-05T04:36:58.548Z,100676.09
2022-08-05T04:39:25.109Z,100669.59
2022-08-05T04:41:54.195Z,100660.13
2022-08-05T04:44:30.082Z,100681.34
2022-08-05T04:47:08.760Z,100711.56
2022-08-05T04:49:38.481Z,100716.84
2022-08-05T04:52:23.015Z,100722.16
2022-08-05T04:54:54.001Z,100741.09
2022-08-05T04:57:23.725Z,100753.72
2022-08-05T04:59:55.907Z,100755.47
2022-08-05T05:02:36.742Z,100773.34
2022-08-05T05:05:16.500Z,100775.91
2022-08-05T05:07:56.269Z,100777.41
2022-08-05T05:10:29.660Z,100778.94
2022-08-05T05:12:56.369Z,100773.69
2022-08-05T05:15:56.740Z,100776.03
2022-08-05T05:18:15.360Z,100774.56
2022-08-05T05:20:55.191Z,100781.31
2022-08-05T05:23:21.725Z,100787.78
2022-08-05T05:25:48.142Z,100787.41
2022-08-05T05:28:14.563Z,100791.22
2022-08-05T05:30:42.194Z,100787.59
2022-08-05T05:33:16.193Z,100781.97
2022-08-05T05:35:48.008Z,100774.16
2022-08-05T05:38:22.715Z,100768.50
2022-08-05T05:40:54.633Z,100764.25
2022-08-05T05:43:56.325Z,100769.88
2022-08-05T05:46:16.001Z,100783.25
2022-08-05T05:48:45.968Z,100786.75
2022-08-05T05:51:21.664Z,100793.59
2022-08-05T05:53:57.613Z,100798.78
2022-08-05T05:56:33.347Z,100804.16
2022-08-05T05:59:05.403Z,100807.03
2022-08-05T06:01:37.922Z,100793.19
2022-08-05T06:04:11.802Z,100793.81
2022-08-05T06:06:43.324Z,100783.31
2022-08-05T06:09:17.532Z,100786.28
2022-08-05T06:12:01.880Z,100777.47
2022-08-05T06:14:30.699Z,100775.22
2022-08-05T06:16:57.819Z,100782.78
2022-08-05T06:19:32.940Z,100792.03
2022-08-05T06:22:02.008Z,100807.56
2022-08-05T06:24:28.431Z,100823.06
2022-08-05T06:26:55.587Z,100834.22
2022-08-05T06:29:42.860Z,100847.03
2022-08-05T06:32:25.277Z,100848.78
2022-08-05T06:34:56.905Z,100850.91
2022-08-05T06:37:57.055Z,100854.56
2022-08-05T06:40:12.104Z,100849.66
2022-08-05T06:42:39.758Z,100858.34
2022-08-05T06:45:08.530Z,100862.41
2022-08-05T06:48:35.891Z,100859.50
2022-08-05T06:50:21.998Z,100843.03
2022-08-05T06:52:58.469Z,100844.75
2022-08-05T06:55:25.671Z,100846.03
2022-08-05T06:57:58.011Z,100827.44
2022-08-05T07:00:38.343Z,100818.84
2022-08-05T07:03:09.755Z,100806.09
2022-08-05T07:05:37.541Z,100798.56
2022-08-05T07:08:10.660Z,100798.19
2022-08-05T07:10:37.759Z,100808.44
2022-08-05T07:13:54.282Z,100824.97
2022-08-05T07:18:01.239Z,100829.81
2022-08-05T07:19:16.120Z,100829.16
2022-08-05T07:22:01.582Z,100841.31
2022-08-05T07:24:29.945Z,100848.84
2022-08-05T07:26:56.947Z,100850.72
2022-08-05T07:29:25.403Z,100846.94
2022-08-05T07:32:12.044Z,100837.75
2022-08-05T07:34:42.454Z,100839.41
2022-08-05T07:37:11.462Z,100840.69
2022-08-05T07:40:04.545Z,100841.28
2022-08-05T07:42:33.473Z,100840.88
2022-08-05T07:45:01.001Z,100850.72
2022-08-05T07:47:27.514Z,100860.53
2022-08-05T07:50:09.619Z,100865.97
2022-08-05T07:52:40.307Z,100861.16
2022-08-05T07:55:15.680Z,100846.94
2022-08-05T07:58:02.364Z,100854.06
2022-08-05T08:00:29.765Z,100859.50
2022-08-05T08:03:15.061Z,100880.22
2022-08-05T08:05:49.775Z,100907.22
2022-08-05T08:08:16.915Z,100923.56
2022-08-05T08:10:48.696Z,100952.22
2022-08-05T08:13:15.711Z,100943.63
2022-08-05T08:16:35.916Z,100904.28
2022-08-05T08:18:35.349Z,100880.81
2022-08-05T08:21:09.814Z,100881.03
2022-08-05T08:24:02.531Z,100885.44
2022-08-05T08:26:29.915Z,100895.69
2022-08-05T08:28:59.737Z,100887.13
2022-08-05T08:31:43.620Z,100885.84
2022-08-05T08:34:10.098Z,100888.34
2022-08-05T08:36:48.882Z,100902.19
2022-08-05T08:39:19.786Z,100900.72
2022-08-05T08:41:52.710Z,100920.81
2022-08-05T08:45:18.731Z,100947.19
2022-08-05T08:47:47.179Z,100963.31
2022-08-05T08:50:31.199Z,100938.81
2022-08-05T08:52:56.756Z,100933.78
2022-08-05T08:55:32.173Z,100939.03
2022-08-05T08:58:12.904Z,100943.03
2022-08-05T09:00:41.644Z,100934.44
2022-08-05T09:03:09.075Z,100939.44
2022-08-05T09:05:39.004Z,100938.19
2022-08-05T09:08:26.660Z,100945.72
2022-08-05T09:10:53.898Z,100948.25
2022-08-05T09:13:20.531Z,100950.53
2022-08-05T09:15:50.806Z,100941.31
2022-08-05T09:18:17.380Z,100944.03
2022-08-05T09:20:45.859Z,100944.66
2022-08-05T09:23:19.450Z,100939.84
2022-08-05T09:26:06.830Z,100941.06
2022-08-05T09:28:38.842Z,100951.56
2022-08-05T09:31:18.198Z,100962.66
2022-08-05T09:34:04.079Z,100958.25
2022-08-05T09:36:56.352Z,100951.91
2022-08-05T09:39:39.262Z,100944.56
2022-08-05T09:42:13.594Z,100957.31
2022-08-05T09:44:50.621Z,100955.41
2022-08-05T09:47:20.794Z,100959.16
2022-08-05T09:50:01.281Z,100976.53
2022-08-05T09:52:36.051Z,100985.56
2022-08-05T09:55:57.524Z,100975.28
2022-08-05T09:57:58.688Z,100970.00
2022-08-05T10:00:26.905Z,100979.63
2022-08-05T10:02:54.886Z,100993.06
2022-08-05T10:05:27.849Z,100999.13
2022-08-05T10:08:36.744Z,100991.59
2022-08-05T10:10:43.894Z,101000.16
2022-08-05T10:13:10.622Z,101009.59
2022-08-05T10:15:39.130Z,101003.69
2022-08-05T10:18:16.673Z,101009.53
2022-08-05T10:20:48.428Z,101016.66
2022-08-05T10:23:34.516Z,101014.53
2022-08-05T10:26:07.920Z,101029.63
2022-08-05T10:28:42.727Z,101036.56
2022-08-05T10:32:53.683Z,101049.53
2022-08-05T10:33:59.115Z,101034.63
2022-08-05T10:36:27.479Z,101040.03
2022-08-05T10:39:05.214Z,101024.72
2022-08-05T10:42:01.307Z,101039.13
2022-08-05T10:44:29.397Z,101032.81
2022-08-05T10:46:56.816Z,101034.41
2022-08-05T10:49:27.147Z,101041.53
2022-08-05T10:52:03.230Z,101052.81
2022-08-05T10:55:01.796Z,101062.59
2022-08-05T10:57:33.943Z,101073.41
2022-08-05T11:00:17.871Z,101070.31
2022-08-05T11:03:25.402Z,101070.59
2022-08-05T11:06:15.087Z,101066.94
2022-08-05T11:09:32.326Z,101074.75
2022-08-05T11:12:26.644Z,101080.84
2022-08-05T11:15:19.197Z,101090.97
2022-08-05T11:18:09.688Z,101099.38
2022-08-05T11:20:44.262Z,101095.44
2022-08-05T11:24:05.129Z,101098.63
2022-08-05T11:26:35.272Z,101096.13
2022-08-05T11:29:11.573Z,101093.91
2022-08-05T11:31:57.834Z,101095.72
2022-08-05T11:34:51.032Z,101097.63
2022-08-05T11:38:36.488Z,101085.47
2022-08-05T11:41:14.130Z,101079.06
2022-08-05T11:44:12.982Z,101081.69
2022-08-05T11:47:14.146Z,101077.97
2022-08-05T11:49:49.791Z,101085.72
2022-08-05T11:52:29.165Z,101080.00
2022-08-05T11:54:57.984Z,101084.06
2022-08-05T11:57:29.285Z,101082.59
2022-08-05T11:59:57.890Z,101090.81
2022-08-05T12:02:31.217Z,101088.84
2022-08-05T12:05:00.538Z,101086.06
2022-08-05T12:08:09.256Z,101079.13
2022-08-05T12:10:22.995Z,101090.91
2022-08-05T12:12:59.956Z,101081.16
2022-08-05T12:15:37.954Z,101086.34
2022-08-05T12:18:11.073Z,101080.06
2022-08-05T12:20:39.098Z,101081.66
2022-08-05T12:23:12.522Z,101084.94
2022-08-05T12:26:09.089Z,101092.25
2022-08-05T12:28:38.924Z,101087.41
2022-08-05T12:31:05.696Z,101099.06
2022-08-05T12:33:36.274Z,101093.38
2022-08-05T12:36:07.082Z,101098.66
2022-08-05T12:38:38.035Z,101096.72
2022-08-05T12:41:13.338Z,101100.22
2022-08-05T12:44:11.588Z,101100.06
2022-08-05T12:46:45.640Z,101105.41
2022-08-05T12:49:14.958Z,101108.00
2022-08-05T12:52:13.788Z,101108.09
2022-08-05T12:54:49.797Z,101118.03
2022-08-05T12:57:16.835Z,101116.19
2022-08-05T13:01:57.839Z,101121.00
2022-08-05T13:02:37.188Z,101123.91
2022-08-05T13:05:07.574Z,101116.16
2022-08-05T13:10:21.782Z,101119.81
2022-08-05T13:12:51.322Z,101111.69
2022-08-05T13:15:35.939Z,101118.69
2022-08-05T13:18:08.441Z,101119.38
2022-08-05T13:20:40.437Z,101117.88
2022-08-05T13:23:07.600Z,101117.00
2022-08-05T13:25:52.133Z,101114.75
2022-08-05T13:28:21.862Z,101124.06
2022-08-05T13:30:48.781Z,101114.13
2022-08-05T13:34:22.108Z,101114.88
2022-08-05T13:36:05.241Z,101120.53
2022-08-05T13:38:38.171Z,101126.09
2022-08-05T13:41:09.394Z,101127.78
2022-08-05T13:43:44.163Z,101130.78
2022-08-05T13:46:43.797Z,101144.31
2022-08-05T13:49:10.112Z,101138.78
2022-08-05T13:51:41.116Z,101137.97
2022-08-05T13:54:13.445Z,101147.56
2022-08-05T13:56:45.548Z,101146.06
2022-08-05T13:59:24.418Z,101148.97
2022-08-05T14:01:56.770Z,101151.63
2022-08-05T14:04:55.949Z,101159.56
2022-08-05T14:08:00.987Z,101153.75
2022-08-05T14:10:19.217Z,101163.56
2022-08-05T14:12:54.974Z,101156.34
2022-08-05T14:16:07.758Z,101149.06
2022-08-05T14:18:15.271Z,101143.47
2022-08-05T14:20:47.059Z,101150.59
2022-08-05T14:23:13.920Z,101148.34
2022-08-05T14:25:47.465Z,101162.56
2022-08-05T14:28:26.718Z,101160.91
2022-08-05T14:30:54.553Z,101168.06
2022-08-05T14:33:22.560Z,101162.56
2022-08-05T14:35:51.493Z,101196.41
2022-08-05T14:38:33.299Z,101171.06
2022-08-05T14:41:06.627Z,101175.41
2022-08-05T14:43:58.767Z,101178.91
2022-08-05T14:46:21.887Z,101176.06
2022-08-05T14:48:49.931Z,101208.09
2022-08-05T14:51:17.556Z,101180.53
2022-08-05T15:08:58.036Z,101205.38
2022-08-05T15:11:07.972Z,101215.06
2022-08-05T15:13:45.896Z,101210.94
2022-08-05T15:16:16.714Z,101208.72
2022-08-05T15:18:43.591Z,101231.59
2022-08-05T15:21:13.949Z,101217.91
2022-08-05T15:23:40.463Z,101223.00
2022-08-05T15:26:06.921Z,101217.63
2022-08-05T15:28:33.698Z,101226.22
2022-08-05T15:31:00.199Z,101226.00
2022-08-05T15:34:04.787Z,101237.56
2022-08-05T15:36:25.827Z,101237.91
2022-08-05T15:40:59.023Z,101243.16
2022-08-05T15:41:55.911Z,101246.97
2022-08-05T15:44:27.424Z,101244.94
2022-08-05T15:46:54.611Z,101237.91
2022-08-05T15:49:40.935Z,101238.53
2022-08-05T15:52:13.269Z,101243.91
2022-08-05T15:54:42.811Z,101238.66
2022-08-05T15:57:09.649Z,101240.91
2022-08-05T15:59:38.092Z,101239.97
2022-08-05T16:02:09.477Z,101262.16
2022-08-05T16:04:41.589Z,101244.84
2022-08-05T16:07:10.780Z,101236.38
2022-08-05T16:09:37.464Z,101249.00
2022-08-05T16:12:08.655Z,101255.03
2022-08-05T16:14:35.205Z,101253.09
2022-08-05T16:17:01.668Z,101253.31
2022-08-05T16:20:05.131Z,101251.84
2022-08-05T16:22:15.896Z,101252.88
2022-08-05T16:24:51.945Z,101259.66
2022-08-05T16:27:18.904Z,101266.41
2022-08-05T16:29:50.335Z,101255.78
2022-08-05T16:32:18.339Z,101261.75
2022-08-05T16:34:54.906Z,101267.41
2022-08-05T16:38:15.435Z,101272.50
2022-08-05T16:40:24.739Z,101269.53
2022-08-05T16:42:52.093Z,101280.16
2022-08-05T16:46:07.589Z,101283.75
2022-08-05T16:48:05.166Z,101285.19
2022-08-05T16:50:31.577Z,101276.19
2022-08-05T16:52:58.842Z,101282.88
2022-08-05T16:55:46.719Z,101285.25
2022-08-05T16:58:13.716Z,101283.75
2022-08-05T17:00:40.810Z,101282.28
2022-08-05T17:03:15.143Z,101283.78
2022-08-05T17:05:48.989Z,101292.97
2022-08-05T17:08:35.920Z,101284.81
2022-08-05T17:11:08.806Z,101294.47
2022-08-05T17:13:42.195Z,101304.16
2022-08-05T17:16:27.905Z,101306.91
2022-08-05T17:18:55.730Z,101305.81
2022-08-05T17:21:23.788Z,101313.34
2022-08-05T17:24:04.711Z,101315.19
2022-08-05T17:26:37.136Z,101320.88
2022-08-05T17:29:07.480Z,101307.78
2022-08-05T17:31:56.450Z,101314.78
2022-08-05T17:34:29.895Z,101324.03
2022-08-05T17:36:59.828Z,101324.69
2022-08-05T17:39:33.180Z,101325.63
2022-08-05T17:42:20.257Z,101333.38
2022-08-05T17:44:50.871Z,101335.41
2022-08-05T17:47:21.932Z,101335.13
2022-08-05T17:49:52.287Z,101338.41
2022-08-05T17:52:30.396Z,101335.53
2022-08-05T17:54:57.689Z,101336.56
2022-08-05T17:57:24.563Z,101341.97
2022-08-05T18:00:04.973Z,101353.97
2022-08-05T18:02:35.460Z,101346.72
2022-08-05T18:05:06.372Z,101352.75
2022-08-05T18:07:41.166Z,101361.50
2022-08-05T18:10:20.308Z,101357.75
2022-08-05T18:12:51.266Z,101357.97
2022-08-05T18:15:18.024Z,101359.13
2022-08-05T18:17:58.890Z,101370.72
2022-08-05T18:20:29.167Z,101378.06
2022-08-05T18:22:58.520Z,101386.44
2022-08-05T18:25:32.975Z,101395.31
2022-08-05T18:28:01.686Z,101396.38
2022-08-05T18:30:32.274Z,101392.31
2022-08-05T18:33:00.333Z,101397.31
2022-08-05T18:35:28.271Z,101397.69
2022-08-05T18:38:18.918Z,101396.38
2022-08-05T18:41:56.359Z,101401.88
2022-08-05T18:43:37.865Z,101406.16
2022-08-05T18:46:06.971Z,101408.94
2022-08-05T18:48:36.822Z,101412.13
2022-08-05T18:52:04.847Z,101414.47
2022-08-05T18:54:13.660Z,101421.13
2022-08-05T18:56:40.779Z,101422.88
2022-08-05T18:59:43.324Z,101422.31
2022-08-05T19:01:57.233Z,101423.88
2022-08-05T19:04:25.252Z,101429.84
2022-08-05T19:06:53.787Z,101428.16
2022-08-05T19:09:21.428Z,101437.41
2022-08-05T19:12:00.752Z,101439.50
2022-08-05T19:14:37.843Z,101444.94
2022-08-05T19:17:15.562Z,101449.50
2022-08-05T19:19:47.082Z,101457.19
2022-08-05T19:22:17.138Z,101458.53
2022-08-05T19:24:55.751Z,101458.81
2022-08-05T19:27:30.453Z,101463.53
2022-08-05T19:29:57.901Z,101470.31
2022-08-05T19:32:26.282Z,101478.78
2022-08-05T19:34:55.822Z,101478.16
2022-08-05T19:37:34.893Z,101491.03
2022-08-05T19:40:12.066Z,101493.09
2022-08-05T19:42:39.238Z,101495.03
2022-08-05T19:45:07.299Z,101498.19
2022-08-05T19:47:37.118Z,101503.66
2022-08-05T19:50:07.533Z,101507.47
2022-08-05T19:52:37.565Z,101508.50
2022-08-05T19:55:07.665Z,101517.56
2022-08-05T19:58:07.044Z,101518.59
2022-08-05T20:00:38.895Z,101516.94
2022-08-05T20:03:08.761Z,101530.78
2022-08-05T20:05:43.312Z,101534.75
2022-08-05T20:08:17.699Z,101537.69
2022-08-05T20:10:44.601Z,101544.19
2022-08-05T20:13:16.421Z,101538.03
2022-08-05T20:15:50.804Z,101548.31
2022-08-05T20:18:35.989Z,101553.13
2022-08-05T20:21:05.270Z,101561.50
2022-08-05T20:23:40.738Z,101564.19
2022-08-05T20:26:17.909Z,101565.19
2022-08-05T20:28:56.204Z,101575.03
2022-08-05T20:31:36.785Z,101580.47
2022-08-05T20:34:10.215Z,101586.69
2022-08-05T20:36:39.143Z,101582.03
2022-08-05T20:39:13.146Z,101595.84
2022-08-05T20:41:44.254Z,101593.28
2022-08-05T20:44:18.650Z,101594.44
2022-08-05T20:46:47.149Z,101593.56
2022-08-05T20:49:14.246Z,101592.69
2022-08-05T20:51:45.081Z,101595.34
2022-08-05T20:54:20.206Z,101605.16
2022-08-05T20:56:47.011Z,101611.41
2022-08-05T20:59:26.503Z,101620.16
2022-08-05T21:01:56.492Z,101622.44
2022-08-05T21:04:26.910Z,101621.31
2022-08-05T21:06:54.137Z,101622.75
2022-08-05T21:09:20.778Z,101623.28
2022-08-05T21:12:07.726Z,101618.25
2022-08-05T21:14:35.273Z,101616.75
2022-08-05T21:17:04.942Z,101621.75
2022-08-05T21:19:47.401Z,101627.59
2022-08-05T21:22:18.582Z,101627.94
2022-08-05T21:24:51.845Z,101620.38
2022-08-05T21:27:20.565Z,101629.97
2022-08-05T21:29:51.080Z,101635.97
2022-08-05T21:32:20.084Z,101628.59
2022-08-05T21:34:55.811Z,101630.00
2022-08-05T21:37:33.433Z,101638.53
2022-08-05T21:40:05.719Z,101640.59
2022-08-05T21:42:44.125Z,101644.75
2022-08-05T21:45:12.140Z,101643.25
2022-08-05T21:47:56.384Z,101650.09
2022-08-05T21:50:24.095Z,101649.47
2022-08-05T21:52:50.531Z,101648.34
2022-08-05T21:55:21.614Z,101662.31
2022-08-05T21:58:05.418Z,101661.03
2022-08-05T22:00:32.026Z,101658.03
2022-08-05T22:02:58.624Z,101655.88
2022-08-05T22:05:27.226Z,101660.19
2022-08-05T22:07:59.303Z,101659.88
2022-08-05T22:10:29.114Z,101662.13
2022-08-05T22:12:59.058Z,101665.41
2022-08-05T22:16:01.136Z,101663.06
2022-08-05T22:18:24.894Z,101665.28
2022-08-05T22:20:52.480Z,101676.53
2022-08-05T22:24:02.056Z,101674.19
2022-08-05T22:26:42.568Z,101671.03
2022-08-05T22:29:17.542Z,101671.56
2022-08-05T22:31:45.540Z,101673.81
2022-08-05T22:34:28.329Z,101671.81
2022-08-05T22:36:56.545Z,101670.53
2022-08-05T22:39:29.660Z,101685.50
2022-08-05T22:42:10.231Z,101682.47
2022-08-05T22:44:38.519Z,101675.06
2022-08-05T22:47:05.998Z,101681.88
2022-08-05T22:50:18.526Z,101677.88
2022-08-05T22:52:30.594Z,101680.28
2022-08-05T22:55:01.225Z,101687.94
2022-08-05T22:57:34.245Z,101692.88
2022-08-05T23:00:07.991Z,101694.25
2022-08-05T23:02:35.606Z,101699.44
2022-08-05T23:05:14.143Z,101705.56
2022-08-05T23:07:44.875Z,101698.09
2022-08-05T23:10:12.637Z,101702.56
2022-08-05T23:12:39.250Z,101700.56
2022-08-05T23:15:09.029Z,101710.44
2022-08-05T23:17:37.936Z,101712.00
2022-08-05T23:20:24.414Z,101711.00
2022-08-05T23:22:52.799Z,101712.56
2022-08-05T23:25:54.908Z,101715.81
2022-08-05T23:28:10.068Z,101709.22
2022-08-05T23:30:40.248Z,101724.19
2022-08-05T23:33:21.871Z,101723.84
2022-08-05T23:35:55.803Z,101724.38
2022-08-05T23:38:24.087Z,101726.59
2022-08-05T23:40:52.836Z,101727.97
2022-08-05T23:43:25.091Z,101730.19
2022-08-05T23:46:04.229Z,101738.66
2022-08-05T23:48:30.832Z,101740.88
2022-08-05T23:50:57.444Z,101743.94
2022-08-05T23:53:28.332Z,101744.44
2022-08-05T23:56:12.055Z,101751.25
2022-08-05T23:58:38.589Z,101743.59
